createdAt,value
2022-12-04T00:01:12.576Z,98503.34
2022-12-04T00:03:39.504Z,98499.56
2022-12-04T00:06:07.551Z,98507.97
2022-12-04T00:08:34.032Z,98519.94
2022-12-04T00:11:00.534Z,98523.38
2022-12-04T00:13:28.589Z,98520.47
2022-12-04T00:15:55.148Z,98508.47
2022-12-04T00:18:21.700Z,98508.53
2022-12-04T00:20:48.388Z,98503.78
2022-12-04T00:23:14.846Z,98499.50
2022-12-04T00:25:41.662Z,98499.50
2022-12-04T00:28:08.227Z,98506.44
2022-12-04T00:30:34.690Z,98516.44
2022-12-04T00:33:01.199Z,98518.53
2022-12-04T00:35:27.602Z,98525.47
2022-12-04T00:37:54.081Z,98527.00
2022-12-04T00:40:20.487Z,98530.78
2022-12-04T00:42:46.994Z,98542.50
2022-12-04T00:45:13.455Z,98543.03
2022-12-04T00:47:39.857Z,98541.97
2022-12-04T00:50:06.662Z,98540.72
2022-12-04T00:52:33.053Z,98552.66
2022-12-04T00:54:59.531Z,98557.97
2022-12-04T00:57:25.945Z,98555.06
2022-12-04T00:59:52.511Z,98567.88
2022-12-04T01:02:18.998Z,98559.22
2022-12-04T01:04:47.298Z,98555.03
2022-12-04T01:07:13.746Z,98564.13
2022-12-04T01:09:40.156Z,98561.53
2022-12-04T01:12:06.698Z,98554.66
2022-12-04T01:14:34.330Z,98555.28
2022-12-04T01:17:00.819Z,98567.66
2022-12-04T01:19:27.334Z,98583.03
2022-12-04T01:21:53.823Z,98575.53
2022-12-04T01:24:20.338Z,98554.88
2022-12-04T01:26:46.769Z,98537.38
2022-12-04T01:29:13.207Z,98564.69
2022-12-04T01:31:39.723Z,98571.66
2022-12-04T01:34:06.304Z,98556.91
2022-12-04T01:36:32.909Z,98555.84
2022-12-04T01:38:59.344Z,98540.31
2022-12-04T01:41:27.333Z,98539.25
2022-12-04T01:44:06.864Z,98557.19
2022-12-04T01:46:33.305Z,98550.22
2022-12-04T01:49:00.195Z,98531.16
2022-12-04T01:51:29.661Z,98530.06
2022-12-04T01:53:57.522Z,98524.69
2022-12-04T01:56:28.793Z,98518.81
2022-12-04T01:58:57.265Z,98528.31
2022-12-04T02:01:24.388Z,98530.91
2022-12-04T02:03:50.880Z,98534.09
2022-12-04T02:06:17.784Z,98527.16
2022-12-04T02:08:44.257Z,98535.81
2022-12-04T02:11:30.015Z,98530.81
2022-12-04T02:14:06.075Z,98525.81
2022-12-04T02:16:47.018Z,98512.88
2022-12-04T02:19:19.584Z,98506.75
2022-12-04T02:21:47.701Z,98515.47
2022-12-04T02:24:21.769Z,98524.06
2022-12-04T02:26:58.903Z,98528.53
2022-12-04T02:29:28.065Z,98519.53
2022-12-04T02:31:59.280Z,98516.47
2022-12-04T02:34:28.484Z,98510.34
2022-12-04T02:37:01.901Z,98502.63
2022-12-04T02:39:34.433Z,98506.81
2022-12-04T02:42:21.215Z,98502.00
2022-12-04T02:44:50.588Z,98499.09
2022-12-04T02:47:18.032Z,98504.72
2022-12-04T02:49:46.274Z,98498.41
2022-12-04T02:52:14.518Z,98504.22
2022-12-04T02:54:43.497Z,98495.69
2022-12-04T02:57:14.092Z,98495.69
2022-12-04T02:59:44.939Z,98498.91
2022-12-04T03:02:27.389Z,98499.97
2022-12-04T03:04:56.014Z,98503.19
2022-12-04T03:07:28.013Z,98497.94
2022-12-04T03:09:57.367Z,98508.41
2022-12-04T03:12:33.859Z,98510.03
2022-12-04T03:15:02.746Z,98510.53
2022-12-04T03:17:37.570Z,98509.97
2022-12-04T03:20:09.761Z,98505.69
2022-12-04T03:22:38.152Z,98508.31
2022-12-04T03:25:05.386Z,98515.72
2022-12-04T03:27:39.445Z,98510.81
2022-12-04T03:30:08.177Z,98508.47
2022-12-04T03:32:39.469Z,98506.38
2022-12-04T03:35:24.749Z,98515.91
2022-12-04T03:38:03.477Z,98516.69
2022-12-04T03:40:38.662Z,98520.72
2022-12-04T03:43:05.026Z,98525.22
2022-12-04T03:45:44.558Z,98531.59
2022-12-04T03:48:31.548Z,98524.09
2022-12-04T03:51:02.801Z,98522.16
2022-12-04T03:53:49.859Z,98526.97
2022-12-04T03:56:16.226Z,98531.28
2022-12-04T03:58:47.742Z,98526.94
2022-12-04T04:01:17.279Z,98533.66
2022-12-04T04:03:46.822Z,98534.25
2022-12-04T04:06:15.885Z,98554.84
2022-12-04T04:08:44.782Z,98572.78
2022-12-04T04:11:14.290Z,98564.25
2022-12-04T04:14:10.410Z,98555.50
2022-12-04T04:16:57.344Z,98550.59
2022-12-04T04:19:44.400Z,98552.09
2022-12-04T04:22:29.928Z,98548.31
2022-12-04T04:25:06.245Z,98544.28
2022-12-04T04:27:32.710Z,98532.28
2022-12-04T04:29:59.724Z,98537.78
2022-12-04T04:32:38.356Z,98534.81
2022-12-04T04:35:25.644Z,98532.06
2022-12-04T04:37:52.084Z,98527.88
2022-12-04T04:40:18.457Z,98533.06
2022-12-04T04:42:55.041Z,98532.72
2022-12-04T04:45:24.002Z,98520.88
2022-12-04T04:47:53.439Z,98521.38
2022-12-04T04:50:20.508Z,98515.34
2022-12-04T04:52:50.056Z,98518.22
2022-12-04T04:55:17.864Z,98512.91
2022-12-04T04:57:44.302Z,98510.44
2022-12-04T05:00:12.241Z,98504.38
2022-12-04T05:02:38.743Z,98502.00
2022-12-04T05:05:05.926Z,98499.84
2022-12-04T05:07:32.407Z,98492.25
2022-12-04T05:09:59.319Z,98494.91
2022-12-04T05:12:25.993Z,98500.69
2022-12-04T05:14:53.107Z,98503.09
2022-12-04T05:17:19.658Z,98505.44
2022-12-04T05:19:56.539Z,98507.78
2022-12-04T05:22:30.147Z,98501.72
2022-12-04T05:24:56.542Z,98492.81
2022-12-04T05:27:23.417Z,98491.19
2022-12-04T05:29:52.040Z,98502.78
2022-12-04T05:32:18.438Z,98499.16
2022-12-04T05:34:49.210Z,98499.72
2022-12-04T05:37:17.818Z,98502.38
2022-12-04T05:39:44.373Z,98503.91
2022-12-04T05:42:10.869Z,98502.50
2022-12-04T05:44:37.289Z,98502.78
2022-12-04T05:47:03.836Z,98511.31
2022-12-04T05:49:30.755Z,98513.47
2022-12-04T05:51:57.239Z,98514.84
2022-12-04T05:54:24.866Z,98517.75
2022-12-04T05:56:51.574Z,98518.88
2022-12-04T05:59:18.386Z,98526.75
2022-12-04T06:01:45.105Z,98535.47
2022-12-04T06:04:11.591Z,98547.34
2022-12-04T06:06:38.602Z,98542.94
2022-12-04T06:09:05.709Z,98539.16
2022-12-04T06:11:36.028Z,98539.97
2022-12-04T06:14:03.769Z,98552.50
2022-12-04T06:16:32.303Z,98542.47
2022-12-04T06:19:00.091Z,98540.28
2022-12-04T06:21:28.358Z,98539.81
2022-12-04T06:23:54.782Z,98543.31
2022-12-04T06:26:22.078Z,98545.91
2022-12-04T06:28:48.502Z,98552.94
2022-12-04T06:31:15.834Z,98550.53
2022-12-04T06:33:42.548Z,98549.41
2022-12-04T06:36:12.075Z,98539.47
2022-12-04T06:38:38.801Z,98536.22
2022-12-04T06:41:09.894Z,98540.41
2022-12-04T06:43:36.676Z,98533.69
2022-12-04T06:46:10.699Z,98527.81
2022-12-04T06:48:37.650Z,98532.53
2022-12-04T06:51:05.627Z,98525.78
2022-12-04T06:53:32.588Z,98520.00
2022-12-04T06:56:00.054Z,98520.81
2022-12-04T06:58:26.766Z,98521.94
2022-12-04T07:00:53.913Z,98520.19
2022-12-04T07:03:22.773Z,98516.41
2022-12-04T07:05:49.839Z,98522.66
2022-12-04T07:08:16.701Z,98505.69
2022-12-04T07:10:43.819Z,98510.19
2022-12-04T07:13:11.362Z,98518.88
2022-12-04T07:15:38.875Z,98520.25
2022-12-04T07:18:05.479Z,98522.09
2022-12-04T07:20:32.273Z,98529.41
2022-12-04T07:23:03.985Z,98535.28
2022-12-04T07:25:35.238Z,98524.75
2022-12-04T07:28:01.631Z,98527.16
2022-12-04T07:30:28.151Z,98536.72
2022-12-04T07:32:54.551Z,98534.97
2022-12-04T07:35:21.066Z,98534.50
2022-12-04T07:37:49.334Z,98533.22
2022-12-04T07:40:17.514Z,98551.56
2022-12-04T07:42:43.941Z,98538.69
2022-12-04T07:45:10.487Z,98535.63
2022-12-04T07:47:37.046Z,98565.69
2022-12-04T07:50:04.676Z,98584.16
2022-12-04T07:52:31.089Z,98590.78
2022-12-04T07:54:57.801Z,98563.47
2022-12-04T07:57:24.221Z,98566.13
2022-12-04T07:59:50.799Z,98583.25
2022-12-04T08:02:17.350Z,98598.16
2022-12-04T08:04:43.813Z,98588.22
2022-12-04T08:07:10.551Z,98587.50
2022-12-04T08:09:37.012Z,98581.56
2022-12-04T08:12:05.259Z,98587.66
2022-12-04T08:14:31.669Z,98584.78
2022-12-04T08:16:58.154Z,98588.88
2022-12-04T08:19:25.354Z,98590.13
2022-12-04T08:21:53.640Z,98590.94
2022-12-04T08:24:20.049Z,98581.28
2022-12-04T08:26:46.730Z,98576.16
2022-12-04T08:29:13.222Z,98572.31
2022-12-04T08:31:39.683Z,98566.84
2022-12-04T08:34:07.451Z,98568.91
2022-12-04T08:36:34.885Z,98574.72
2022-12-04T08:39:01.505Z,98580.34
2022-12-04T08:41:27.965Z,98589.81
2022-12-04T08:43:55.089Z,98593.69
2022-12-04T08:46:21.939Z,98594.84
2022-12-04T08:48:48.797Z,98595.94
2022-12-04T08:51:16.614Z,98605.44
2022-12-04T08:53:43.081Z,98604.78
2022-12-04T08:56:09.848Z,98609.28
2022-12-04T08:58:36.305Z,98610.09
2022-12-04T09:01:10.230Z,98629.25
2022-12-04T09:03:36.772Z,98633.88
2022-12-04T09:06:04.585Z,98651.59
2022-12-04T09:08:31.784Z,98654.47
2022-12-04T09:11:10.545Z,98658.75
2022-12-04T09:13:38.873Z,98676.88
2022-12-04T09:16:07.101Z,98685.63
2022-12-04T09:18:34.070Z,98689.31
2022-12-04T09:21:01.598Z,98706.66
2022-12-04T09:23:28.274Z,98715.56
2022-12-04T09:25:54.944Z,98715.09
2022-12-04T09:28:21.726Z,98717.75
2022-12-04T09:30:58.972Z,98720.88
2022-12-04T09:33:25.495Z,98730.91
2022-12-04T09:35:52.062Z,98731.94
2022-12-04T09:38:18.644Z,98734.69
2022-12-04T09:40:55.025Z,98741.31
2022-12-04T09:43:29.696Z,98742.09
2022-12-04T09:45:58.911Z,98737.59
2022-12-04T09:48:30.957Z,98747.16
2022-12-04T09:50:57.757Z,98747.06
2022-12-04T09:53:29.797Z,98748.69
2022-12-04T09:56:04.554Z,98761.47
2022-12-04T09:59:00.417Z,98768.50
2022-12-04T10:01:45.546Z,98770.13
2022-12-04T10:04:12.598Z,98763.19
2022-12-04T10:06:47.993Z,98763.31
2022-12-04T10:09:19.550Z,98771.63
2022-12-04T10:11:53.369Z,98790.19
2022-12-04T10:14:20.471Z,98782.78
2022-12-04T10:16:49.681Z,98776.22
2022-12-04T10:19:22.649Z,98779.59
2022-12-04T10:22:01.914Z,98793.06
2022-12-04T10:24:35.918Z,98786.97
2022-12-04T10:27:08.050Z,98784.91
2022-12-04T10:29:35.742Z,98790.06
2022-12-04T10:32:22.348Z,98797.22
2022-12-04T10:34:50.805Z,98793.19
2022-12-04T10:37:17.301Z,98793.31
2022-12-04T10:40:00.384Z,98810.66
2022-12-04T10:42:33.214Z,98803.38
2022-12-04T10:44:59.654Z,98791.50
2022-12-04T10:47:26.373Z,98789.09
2022-12-04T10:49:58.767Z,98781.94
2022-12-04T10:52:25.338Z,98761.72
2022-12-04T10:54:55.010Z,98778.16
2022-12-04T10:57:21.401Z,98774.13
2022-12-04T10:59:52.542Z,98774.22
2022-12-04T11:02:22.247Z,98764.88
2022-12-04T11:05:05.605Z,98745.44
2022-12-04T11:07:37.037Z,98733.69
2022-12-04T11:10:07.019Z,98724.50
2022-12-04T11:12:33.665Z,98717.00
2022-12-04T11:15:20.962Z,98704.53
2022-12-04T11:17:47.421Z,98710.88
2022-12-04T11:20:21.535Z,98714.13
2022-12-04T11:22:51.458Z,98712.63
2022-12-04T11:25:19.894Z,98695.78
2022-12-04T11:27:47.946Z,98701.31
2022-12-04T11:30:19.294Z,98707.44
2022-12-04T11:32:46.639Z,98704.22
2022-12-04T11:35:20.339Z,98691.84
2022-12-04T11:37:58.259Z,98696.34
2022-12-04T11:40:25.767Z,98702.59
2022-12-04T11:43:01.027Z,98728.41
2022-12-04T11:45:27.418Z,98731.63
2022-12-04T11:47:55.271Z,98722.19
2022-12-04T11:50:34.618Z,98739.47
2022-12-04T11:53:14.475Z,98759.53
2022-12-04T11:55:59.547Z,98753.75
2022-12-04T11:58:25.926Z,98769.06
2022-12-04T12:01:05.766Z,98767.56
2022-12-04T12:03:39.391Z,98780.16
2022-12-04T12:06:16.694Z,98766.06
2022-12-04T12:08:48.556Z,98765.97
2022-12-04T12:11:28.322Z,98769.66
2022-12-04T12:13:58.327Z,98766.88
2022-12-04T12:16:37.358Z,98768.19
2022-12-04T12:19:16.061Z,98799.59
2022-12-04T12:21:50.932Z,98829.50
2022-12-04T12:24:26.386Z,98831.03
2022-12-04T12:27:07.488Z,98812.16
2022-12-04T12:29:37.025Z,98801.66
2022-12-04T12:32:23.707Z,98817.94
2022-12-04T12:34:50.758Z,98810.31
2022-12-04T12:37:22.546Z,98804.13
2022-12-04T12:40:14.038Z,98794.94
2022-12-04T12:42:43.895Z,98801.91
2022-12-04T12:45:19.390Z,98791.19
2022-12-04T12:47:48.004Z,98776.94
2022-12-04T12:50:32.777Z,98769.38
2022-12-04T12:53:03.093Z,98772.50
2022-12-04T12:55:36.203Z,98780.63
2022-12-04T12:58:21.250Z,98755.28
2022-12-04T13:01:10.895Z,98759.56
2022-12-04T13:03:43.201Z,98765.84
2022-12-04T13:06:12.701Z,98757.22
2022-12-04T13:08:49.242Z,98740.81
2022-12-04T13:11:25.783Z,98739.53
2022-12-04T13:13:55.255Z,98736.75
2022-12-04T13:16:24.711Z,98736.31
2022-12-04T13:18:55.399Z,98730.09
2022-12-04T13:21:42.544Z,98751.91
2022-12-04T13:24:11.755Z,98754.31
2022-12-04T13:26:49.052Z,98752.16
2022-12-04T13:29:24.415Z,98734.94
2022-12-04T13:32:00.715Z,98743.09
2022-12-04T13:35:05.506Z,98752.25
2022-12-04T13:37:31.908Z,98735.72
2022-12-04T13:40:17.551Z,98740.75
2022-12-04T13:42:44.065Z,98752.78
2022-12-04T13:45:11.982Z,98752.78
2022-12-04T13:47:38.931Z,98742.25
2022-12-04T13:50:07.354Z,98749.84
2022-12-04T13:52:40.597Z,98763.91
2022-12-04T13:55:25.859Z,98771.28
2022-12-04T13:57:56.802Z,98758.44
2022-12-04T14:00:28.418Z,98773.16
2022-12-04T14:02:59.647Z,98780.81
2022-12-04T14:05:31.337Z,98784.34
2022-12-04T14:08:07.345Z,98774.06
2022-12-04T14:10:38.390Z,98772.44
2022-12-04T14:13:16.772Z,98794.56
2022-12-04T14:15:46.698Z,98792.25
2022-12-04T14:18:13.361Z,98777.00
2022-12-04T14:20:40.895Z,98775.75
2022-12-04T14:23:16.554Z,98788.19
2022-12-04T14:25:43.022Z,98788.47
2022-12-04T14:28:37.271Z,98775.81
2022-12-04T14:31:20.085Z,98793.47
2022-12-04T14:33:49.474Z,98789.94
2022-12-04T14:36:27.343Z,98799.97
2022-12-04T14:39:03.268Z,98786.84
2022-12-04T14:41:29.925Z,98807.44
2022-12-04T14:43:56.853Z,98825.06
2022-12-04T14:46:27.931Z,98827.97
2022-12-04T14:49:13.229Z,98815.56
2022-12-04T14:51:59.924Z,98818.91
2022-12-04T14:54:27.026Z,98835.56
2022-12-04T14:57:12.302Z,98840.13
2022-12-04T14:59:44.021Z,98834.16
2022-12-04T15:02:21.543Z,98831.09
2022-12-04T15:04:49.268Z,98845.44
2022-12-04T15:07:18.934Z,98853.06
2022-12-04T15:10:11.090Z,98866.38
2022-12-04T15:12:44.985Z,98851.59
2022-12-04T15:15:17.645Z,98864.59
2022-12-04T15:17:44.317Z,98878.91
2022-12-04T15:20:11.920Z,98882.59
2022-12-04T15:22:38.726Z,98890.56
2022-12-04T15:25:06.161Z,98877.00
2022-12-04T15:27:35.158Z,98872.84
2022-12-04T15:30:02.280Z,98861.88
2022-12-04T15:32:30.714Z,98859.84
2022-12-04T15:35:06.190Z,98860.25
2022-12-04T15:37:32.989Z,98849.69
2022-12-04T15:40:01.969Z,98852.31
2022-12-04T15:42:29.623Z,98838.69
2022-12-04T15:45:25.221Z,98830.13
2022-12-04T15:47:53.753Z,98824.06
2022-12-04T15:50:23.638Z,98815.53
2022-12-04T15:53:01.394Z,98824.69
2022-12-04T15:55:29.430Z,98810.94
2022-12-04T15:57:57.809Z,98805.28
2022-12-04T16:00:24.315Z,98808.94
2022-12-04T16:02:50.898Z,98808.94
2022-12-04T16:05:20.389Z,98801.19
2022-12-04T16:07:49.985Z,98793.78
2022-12-04T16:10:22.857Z,98791.38
2022-12-04T16:12:59.402Z,98794.59
2022-12-04T16:15:39.738Z,98792.25
2022-12-04T16:18:07.225Z,98779.91
2022-12-04T16:20:34.462Z,98775.00
2022-12-04T16:23:00.894Z,98766.13
2022-12-04T16:25:28.881Z,98759.81
2022-12-04T16:27:55.298Z,98767.16
2022-12-04T16:30:21.793Z,98749.13
2022-12-04T16:32:48.483Z,98746.28
2022-12-04T16:35:18.417Z,98745.00
2022-12-04T16:37:46.724Z,98742.50
2022-12-04T16:40:14.473Z,98742.88
2022-12-04T16:42:41.509Z,98739.56
2022-12-04T16:45:30.971Z,98741.19
2022-12-04T16:47:58.139Z,98739.03
2022-12-04T16:50:25.328Z,98727.34
2022-12-04T16:52:51.925Z,98714.38
2022-12-04T16:55:38.343Z,98726.09
2022-12-04T16:58:05.719Z,98731.69
2022-12-04T17:00:32.278Z,98740.00
2022-12-04T17:02:58.896Z,98730.25
2022-12-04T17:05:27.483Z,98726.88
2022-12-04T17:07:54.013Z,98724.09
2022-12-04T17:10:24.067Z,98745.56
2022-12-04T17:12:54.974Z,98767.16
2022-12-04T17:15:22.357Z,98764.81
2022-12-04T17:17:49.161Z,98766.28
2022-12-04T17:20:17.386Z,98757.91
2022-12-04T17:22:44.015Z,98752.19
2022-12-04T17:25:11.415Z,98733.50
2022-12-04T17:27:38.189Z,98722.31
2022-12-04T17:30:06.103Z,98716.03
2022-12-04T17:32:33.337Z,98709.13
2022-12-04T17:34:59.879Z,98709.28
2022-12-04T17:37:26.358Z,98711.13
2022-12-04T17:39:53.458Z,98712.50
2022-12-04T17:42:20.219Z,98708.41
2022-12-04T17:44:46.925Z,98704.25
2022-12-04T17:47:13.475Z,98701.31
2022-12-04T17:49:39.959Z,98699.97
2022-12-04T17:52:06.566Z,98695.81
2022-12-04T17:54:33.878Z,98692.94
2022-12-04T17:57:00.319Z,98691.25
2022-12-04T17:59:26.715Z,98692.28
2022-12-04T18:01:53.165Z,98687.25
2022-12-04T18:04:19.808Z,98678.84
2022-12-04T18:06:46.844Z,98683.69
2022-12-04T18:09:15.811Z,98681.16
2022-12-04T18:11:43.481Z,98675.88
2022-12-04T18:14:12.837Z,98677.63
2022-12-04T18:16:41.652Z,98678.97
2022-12-04T18:19:08.209Z,98690.59
2022-12-04T18:21:34.671Z,98697.06
2022-12-04T18:24:02.931Z,98693.00
2022-12-04T18:26:32.729Z,98711.31
2022-12-04T18:28:59.170Z,98710.97
2022-12-04T18:31:25.677Z,98719.25
2022-12-04T18:33:52.110Z,98725.22
2022-12-04T18:36:20.019Z,98725.59
2022-12-04T18:38:46.961Z,98728.47
2022-12-04T18:41:14.503Z,98732.34
2022-12-04T18:43:43.905Z,98729.94
2022-12-04T18:46:11.695Z,98731.09
2022-12-04T18:48:39.080Z,98728.22
2022-12-04T18:51:14.431Z,98731.25
2022-12-04T18:53:41.052Z,98733.75
2022-12-04T18:56:07.441Z,98730.75
2022-12-04T18:58:33.981Z,98750.78
2022-12-04T19:01:11.063Z,98753.44
2022-12-04T19:03:37.681Z,98764.78
2022-12-04T19:06:04.343Z,98764.56
2022-12-04T19:08:34.218Z,98771.03
2022-12-04T19:11:06.982Z,98770.38
2022-12-04T19:13:35.663Z,98766.91
2022-12-04T19:16:02.285Z,98771.19
2022-12-04T19:18:29.895Z,98767.50
2022-12-04T19:20:56.716Z,98767.13
2022-12-04T19:23:23.478Z,98770.59
2022-12-04T19:25:57.515Z,98765.88
2022-12-04T19:28:24.402Z,98773.81
2022-12-04T19:30:50.925Z,98771.41
2022-12-04T19:33:17.390Z,98779.78
2022-12-04T19:35:43.951Z,98778.97
2022-12-04T19:38:10.396Z,98778.97
2022-12-04T19:40:36.795Z,98784.72
2022-12-04T19:43:03.382Z,98789.69
2022-12-04T19:45:29.934Z,98791.50
2022-12-04T19:47:56.426Z,98800.34
2022-12-04T19:50:22.915Z,98801.59
2022-12-04T19:52:49.318Z,98799.31
2022-12-04T19:55:15.773Z,98800.72
2022-12-04T19:57:42.282Z,98798.06
2022-12-04T20:00:09.025Z,98807.09
2022-12-04T20:02:35.701Z,98808.88
2022-12-04T20:05:02.255Z,98814.59
2022-12-04T20:07:28.887Z,98811.75
2022-12-04T20:09:55.449Z,98807.25
2022-12-04T20:12:23.408Z,98821.59
2022-12-04T20:14:49.886Z,98828.59
2022-12-04T20:17:16.277Z,98829.63
2022-12-04T20:19:42.724Z,98834.78
2022-12-04T20:22:09.178Z,98835.22
2022-12-04T20:24:35.677Z,98828.59
2022-12-04T20:27:03.261Z,98819.53
2022-12-04T20:29:29.724Z,98818.72
2022-12-04T20:31:56.145Z,98823.13
2022-12-04T20:34:22.643Z,98821.50
2022-12-04T20:36:49.437Z,98813.13
2022-12-04T20:39:16.661Z,98815.34
2022-12-04T20:41:43.167Z,98812.44
2022-12-04T20:44:13.179Z,98809.56
2022-12-04T20:46:40.278Z,98806.69
2022-12-04T20:49:08.594Z,98794.41
2022-12-04T20:51:36.231Z,98792.81
2022-12-04T20:54:04.933Z,98784.84
2022-12-04T20:56:33.146Z,98783.38
2022-12-04T20:59:01.250Z,98781.31
2022-12-04T21:01:28.239Z,98786.47
2022-12-04T21:03:55.499Z,98784.28
2022-12-04T21:06:32.740Z,98782.66
2022-12-04T21:09:07.627Z,98776.19
2022-12-04T21:11:35.667Z,98779.44
2022-12-04T21:14:22.555Z,98786.91
2022-12-04T21:16:49.611Z,98783.84
2022-12-04T21:19:17.310Z,98782.22
2022-12-04T21:21:44.264Z,98778.75
2022-12-04T21:24:12.108Z,98780.81
2022-12-04T21:26:38.885Z,98782.28
2022-12-04T21:29:06.445Z,98788.88
2022-12-04T21:31:33.677Z,98788.88
2022-12-04T21:34:00.966Z,98783.56
2022-12-04T21:36:28.046Z,98784.59
2022-12-04T21:38:54.929Z,98817.78
2022-12-04T21:41:39.890Z,98816.84
2022-12-04T21:44:07.783Z,98813.59
2022-12-04T21:46:34.843Z,98806.81
2022-12-04T21:49:01.323Z,98793.47
2022-12-04T21:51:55.862Z,98762.78
2022-12-04T21:54:14.436Z,98774.38
2022-12-04T21:56:40.905Z,98763.50
2022-12-04T21:59:07.613Z,98761.59
2022-12-04T22:01:34.280Z,98741.19
2022-12-04T22:04:00.887Z,98723.41
2022-12-04T22:06:27.805Z,98734.16
2022-12-04T22:08:54.726Z,98735.53
2022-12-04T22:11:21.605Z,98737.66
2022-12-04T22:13:48.810Z,98734.41
2022-12-04T22:16:16.125Z,98711.81
2022-12-04T22:18:42.646Z,98717.97
2022-12-04T22:21:10.790Z,98722.09
2022-12-04T22:23:37.489Z,98710.63
2022-12-04T22:26:05.037Z,98692.00
2022-12-04T22:28:31.471Z,98680.66
2022-12-04T22:31:01.876Z,98675.22
2022-12-04T22:33:28.334Z,98689.38
2022-12-04T22:35:54.851Z,98685.13
2022-12-04T22:38:21.377Z,98691.72
2022-12-04T22:40:47.832Z,98688.78
2022-12-04T22:43:16.202Z,98694.34
2022-12-04T22:45:42.670Z,98711.38
2022-12-04T22:48:09.058Z,98708.13
2022-12-04T22:50:35.993Z,98722.34
2022-12-04T22:53:02.449Z,98725.84
2022-12-04T22:55:28.883Z,98718.84
2022-12-04T22:57:55.334Z,98728.69
2022-12-04T23:00:21.877Z,98741.78
2022-12-04T23:02:48.453Z,98732.22
2022-12-04T23:05:17.377Z,98726.84
2022-12-04T23:07:43.977Z,98721.75
2022-12-04T23:10:10.469Z,98720.50
2022-12-04T23:12:36.972Z,98741.41
2022-12-04T23:15:05.178Z,98764.84
2022-12-04T23:17:31.818Z,98777.09
2022-12-04T23:19:58.375Z,98776.22
2022-12-04T23:22:25.030Z,98757.09
2022-12-04T23:24:51.514Z,98741.97
2022-12-04T23:27:17.972Z,98732.50
2022-12-04T23:29:53.034Z,98720.06
2022-12-04T23:32:20.074Z,98735.44
2022-12-04T23:34:46.829Z,98725.47
2022-12-04T23:37:13.317Z,98715.50
2022-12-04T23:39:39.706Z,98698.28
2022-12-04T23:42:08.170Z,98687.63
2022-12-04T23:44:34.610Z,98676.16
2022-12-04T23:47:01.058Z,98680.09
2022-12-04T23:49:27.513Z,98661.78
2022-12-04T23:51:54.726Z,98677.00
2022-12-04T23:54:21.406Z,98694.13
2022-12-04T23:56:47.871Z,98696.81
2022-12-04T23:59:14.306Z,98702.16
